createdAt,value
2023-02-11T00:03:58.764Z,102471.97
2023-02-11T00:08:01.815Z,102471.38
2023-02-11T00:12:06.629Z,102468.06
2023-02-11T00:16:11.537Z,102471.75
2023-02-11T00:20:14.677Z,102475.88
2023-02-11T00:24:17.721Z,102467.69
2023-02-11T00:28:22.117Z,102455.94
2023-02-11T00:32:25.202Z,102462.25
2023-02-11T00:36:30.431Z,102456.38
2023-02-11T00:40:33.551Z,102457.00
2023-02-11T00:44:37.923Z,102459.63
2023-02-11T00:48:41.333Z,102450.50
2023-02-11T00:52:44.448Z,102453.94
2023-02-11T00:56:47.463Z,102470.81
2023-02-11T01:00:51.851Z,102469.41
2023-02-11T01:04:54.921Z,102460.41
2023-02-11T01:08:58.026Z,102443.97
2023-02-11T01:13:01.686Z,102446.41
2023-02-11T01:17:07.617Z,102443.69
2023-02-11T01:21:11.140Z,102436.22
2023-02-11T01:25:14.548Z,102439.06
2023-02-11T01:29:17.628Z,102429.66
2023-02-11T01:33:23.443Z,102452.78
2023-02-11T01:37:26.806Z,102468.97
2023-02-11T01:41:29.828Z,102484.53
2023-02-11T01:45:59.818Z,102468.25
2023-02-11T01:50:04.847Z,102463.53
2023-02-11T01:54:28.684Z,102464.81
2023-02-11T01:58:35.401Z,102463.09
2023-02-11T02:02:46.156Z,102477.66
2023-02-11T02:06:56.510Z,102460.88
2023-02-11T02:11:01.052Z,102446.56
2023-02-11T02:15:21.201Z,102442.97
2023-02-11T02:19:59.573Z,102437.97
2023-02-11T02:25:01.083Z,102434.97
2023-02-11T02:33:42.977Z,102430.25
2023-02-11T02:37:56.360Z,102432.97
2023-02-11T02:41:59.546Z,102420.66
2023-02-11T02:46:12.952Z,102424.81
2023-02-11T02:50:23.124Z,102432.25
2023-02-11T02:55:11.011Z,102434.44
2023-02-11T02:59:28.456Z,102426.75
2023-02-11T03:03:41.827Z,102422.16
2023-02-11T03:07:53.348Z,102433.03
2023-02-11T03:11:57.179Z,102433.91
2023-02-11T03:16:03.295Z,102431.94
2023-02-11T03:20:11.238Z,102437.47
2023-02-11T03:24:20.028Z,102423.03
2023-02-11T03:28:30.524Z,102405.75
2023-02-11T03:32:37.889Z,102396.44
2023-02-11T03:36:47.369Z,102410.19
2023-02-11T03:40:53.075Z,102398.59
2023-02-11T03:45:04.976Z,102403.31
2023-02-11T03:49:12.628Z,102409.00
2023-02-11T03:53:16.975Z,102396.38
2023-02-11T03:57:21.485Z,102398.16
2023-02-11T04:01:24.766Z,102405.31
2023-02-11T04:05:27.993Z,102410.47
2023-02-11T04:09:31.004Z,102406.75
2023-02-11T04:13:35.393Z,102393.88
2023-02-11T04:17:38.886Z,102401.03
2023-02-11T04:21:41.950Z,102391.88
2023-02-11T04:25:45.079Z,102396.59
2023-02-11T04:29:49.734Z,102392.72
2023-02-11T04:33:52.779Z,102397.88
2023-02-11T04:37:55.959Z,102386.19
2023-02-11T04:41:59.037Z,102390.16
2023-02-11T04:46:03.571Z,102390.09
2023-02-11T04:50:07.152Z,102399.78
2023-02-11T04:54:10.167Z,102405.63
2023-02-11T04:58:13.237Z,102425.66
2023-02-11T05:02:17.673Z,102428.34
2023-02-11T05:06:20.728Z,102433.53
2023-02-11T05:10:23.953Z,102423.84
2023-02-11T05:14:27.019Z,102430.47
2023-02-11T05:18:31.384Z,102424.78
2023-02-11T05:22:34.511Z,102417.91
2023-02-11T05:26:37.637Z,102419.63
2023-02-11T05:30:40.776Z,102398.19
2023-02-11T05:34:45.352Z,102402.06
2023-02-11T05:38:48.415Z,102399.91
2023-02-11T05:42:51.434Z,102399.63
2023-02-11T05:46:54.467Z,102392.75
2023-02-11T05:50:59.108Z,102391.03
2023-02-11T05:55:02.132Z,102398.19
2023-02-11T05:59:05.223Z,102395.63
2023-02-11T06:03:08.277Z,102391.34
2023-02-11T06:07:12.719Z,102398.50
2023-02-11T06:11:16.361Z,102396.78
2023-02-11T06:15:19.650Z,102395.06
2023-02-11T06:19:22.712Z,102403.19
2023-02-11T06:23:29.981Z,102405.91
2023-02-11T06:27:33.474Z,102411.09
2023-02-11T06:31:38.637Z,102402.19
2023-02-11T06:35:41.854Z,102410.34
2023-02-11T06:39:47.821Z,102405.91
2023-02-11T06:43:51.271Z,102408.47
2023-02-11T06:47:54.604Z,102425.66
2023-02-11T06:51:57.780Z,102413.06
2023-02-11T06:56:05.625Z,102407.34
2023-02-11T07:00:10.349Z,102420.81
2023-02-11T07:04:14.770Z,102435.97
2023-02-11T07:08:17.779Z,102439.41
2023-02-11T07:12:22.152Z,102439.66
2023-02-11T07:16:25.276Z,102446.56
2023-02-11T07:20:28.391Z,102443.84
2023-02-11T07:24:31.551Z,102447.44
2023-02-11T07:28:38.267Z,102444.28
2023-02-11T07:32:41.318Z,102455.16
2023-02-11T07:36:45.214Z,102451.44
2023-02-11T07:40:48.259Z,102446.72
2023-02-11T07:44:52.628Z,102448.06
2023-02-11T07:48:56.572Z,102461.75
2023-02-11T07:52:59.592Z,102468.66
2023-02-11T07:57:02.610Z,102461.94
2023-02-11T08:01:08.952Z,102476.41
2023-02-11T08:05:12.125Z,102488.13
2023-02-11T08:09:17.521Z,102483.13
2023-02-11T08:13:20.579Z,102495.00
2023-02-11T08:17:24.958Z,102485.84
2023-02-11T08:21:28.784Z,102485.56
2023-02-11T08:25:31.820Z,102479.03
2023-02-11T08:29:34.848Z,102491.19
2023-02-11T08:33:40.467Z,102487.31
2023-02-11T08:37:43.512Z,102480.75
2023-02-11T08:41:48.891Z,102486.63
2023-02-11T08:45:52.285Z,102489.91
2023-02-11T08:49:56.890Z,102497.34
2023-02-11T08:54:00.618Z,102508.84
2023-02-11T08:58:03.787Z,102505.13
2023-02-11T09:02:07.383Z,102511.00
2023-02-11T09:06:13.880Z,102516.56
2023-02-11T09:10:17.111Z,102530.03
2023-02-11T09:14:23.402Z,102528.16
2023-02-11T09:18:26.961Z,102520.31
2023-02-11T09:22:31.289Z,102529.50
2023-02-11T09:26:36.082Z,102530.78
2023-02-11T09:30:39.868Z,102534.22
2023-02-11T09:34:42.950Z,102533.50
2023-02-11T09:38:47.921Z,102527.22
2023-02-11T09:42:56.097Z,102539.81
2023-02-11T09:47:03.083Z,102542.97
2023-02-11T09:51:07.491Z,102550.16
2023-02-11T09:55:20.437Z,102556.28
2023-02-11T09:59:23.965Z,102569.59
2023-02-11T10:03:42.688Z,102568.75
2023-02-11T10:07:52.629Z,102571.31
2023-02-11T10:12:10.663Z,102577.09
2023-02-11T10:16:29.667Z,102577.38
2023-02-11T10:20:37.798Z,102586.81
2023-02-11T10:24:43.870Z,102592.53
2023-02-11T10:28:50.717Z,102589.09
2023-02-11T10:32:58.852Z,102599.44
2023-02-11T10:37:01.897Z,102598.44
2023-02-11T10:41:05.385Z,102600.44
2023-02-11T10:45:18.777Z,102606.31
2023-02-11T10:49:36.335Z,102597.75
2023-02-11T10:53:39.722Z,102587.56
2023-02-11T10:57:44.952Z,102597.75
2023-02-11T11:01:52.104Z,102591.13
2023-02-11T11:05:58.878Z,102599.47
2023-02-11T11:10:04.564Z,102594.03
2023-02-11T11:14:20.468Z,102600.47
2023-02-11T11:18:24.866Z,102599.47
2023-02-11T11:22:27.909Z,102603.19
2023-02-11T11:26:42.549Z,102601.91
2023-02-11T11:30:45.719Z,102597.47
2023-02-11T11:34:54.130Z,102605.50
2023-02-11T11:38:59.931Z,102610.97
2023-02-11T11:43:20.246Z,102596.06
2023-02-11T11:47:37.226Z,102592.03
2023-02-11T11:51:46.928Z,102586.47
2023-02-11T11:55:59.762Z,102580.56
2023-02-11T12:00:03.024Z,102575.41
2023-02-11T12:04:27.385Z,102577.13
2023-02-11T12:08:43.814Z,102578.28
2023-02-11T12:12:56.624Z,102573.97
2023-02-11T12:17:08.900Z,102557.06
2023-02-11T12:21:26.145Z,102572.53
2023-02-11T12:25:36.909Z,102578.84
2023-02-11T12:29:51.358Z,102581.72
2023-02-11T12:34:17.241Z,102582.41
2023-02-11T12:38:53.501Z,102589.47
2023-02-11T12:43:17.164Z,102577.50
2023-02-11T12:47:29.149Z,102575.94
2023-02-11T12:51:46.264Z,102580.53
2023-02-11T12:55:55.047Z,102565.59
2023-02-11T13:00:05.015Z,102565.59
2023-02-11T13:04:14.825Z,102559.84
2023-02-11T13:08:25.091Z,102561.44
2023-02-11T13:12:48.973Z,102561.69
2023-02-11T13:16:55.091Z,102550.66
2023-02-11T13:21:08.586Z,102549.19
2023-02-11T13:25:23.598Z,102552.06
2023-02-11T13:29:39.490Z,102548.16
2023-02-11T13:33:45.881Z,102554.44
2023-02-11T13:37:49.195Z,102544.25
2023-02-11T13:41:52.977Z,102544.78
2023-02-11T13:46:00.279Z,102544.75
2023-02-11T13:50:09.701Z,102541.56
2023-02-11T13:54:24.441Z,102539.78
2023-02-11T13:58:40.066Z,102534.09
2023-02-11T14:03:00.616Z,102532.13
2023-02-11T14:07:48.335Z,102559.41
2023-02-11T14:11:55.313Z,102565.97
2023-02-11T14:16:06.979Z,102568.81
2023-02-11T14:20:36.509Z,102561.91
2023-02-11T14:24:51.065Z,102560.78
2023-02-11T14:29:01.644Z,102556.88
2023-02-11T14:33:22.640Z,102560.50
2023-02-11T14:37:39.321Z,102558.19
2023-02-11T14:41:47.116Z,102565.38
2023-02-11T14:45:52.767Z,102552.13
2023-02-11T14:49:56.262Z,102550.09
2023-02-11T14:54:03.870Z,102551.69
2023-02-11T14:58:16.672Z,102557.56
2023-02-11T15:02:26.369Z,102546.22
2023-02-11T15:06:32.786Z,102553.22
2023-02-11T15:10:39.164Z,102560.72
2023-02-11T15:14:49.002Z,102557.34
2023-02-11T15:18:54.449Z,102564.03
2023-02-11T15:23:00.966Z,102560.91
2023-02-11T15:27:11.842Z,102556.16
2023-02-11T15:31:19.777Z,102564.03
2023-02-11T15:35:22.957Z,102565.94
2023-02-11T15:39:36.631Z,102568.81
2023-02-11T15:43:45.324Z,102580.31
2023-02-11T15:47:52.188Z,102581.25
2023-02-11T15:51:57.211Z,102594.91
2023-02-11T15:56:05.556Z,102590.75
2023-02-11T16:00:16.630Z,102600.53
2023-02-11T16:04:24.426Z,102601.84
2023-02-11T16:08:32.810Z,102595.38
2023-02-11T16:12:36.024Z,102591.34
2023-02-11T16:16:39.234Z,102593.25
2023-02-11T16:20:48.541Z,102602.72
2023-02-11T16:24:54.298Z,102605.44
2023-02-11T16:29:08.042Z,102605.75
2023-02-11T16:33:12.724Z,102607.72
2023-02-11T16:37:17.754Z,102608.16
2023-02-11T16:41:21.032Z,102622.97
2023-02-11T16:45:24.093Z,102628.25
2023-02-11T16:49:29.359Z,102630.44
2023-02-11T16:53:33.862Z,102634.16
2023-02-11T16:57:36.978Z,102635.16
2023-02-11T17:01:41.397Z,102635.34
2023-02-11T17:05:54.964Z,102642.06
2023-02-11T17:09:59.703Z,102644.81
2023-02-11T17:14:02.730Z,102645.53
2023-02-11T17:18:06.088Z,102650.38
2023-02-11T17:22:10.085Z,102656.84
2023-02-11T17:26:14.469Z,102661.59
2023-02-11T17:30:17.775Z,102652.56
2023-02-11T17:34:21.203Z,102658.16
2023-02-11T17:38:24.262Z,102670.06
2023-02-11T17:42:29.196Z,102674.34
2023-02-11T17:46:32.557Z,102680.81
2023-02-11T17:50:36.784Z,102691.00
2023-02-11T17:54:39.958Z,102698.47
2023-02-11T17:58:44.429Z,102694.44
2023-02-11T18:02:47.479Z,102699.75
2023-02-11T18:06:53.553Z,102705.91
2023-02-11T18:10:56.803Z,102709.38
2023-02-11T18:15:01.221Z,102700.47
2023-02-11T18:19:06.578Z,102711.09
2023-02-11T18:23:09.949Z,102712.09
2023-02-11T18:27:13.597Z,102710.25
2023-02-11T18:31:18.488Z,102723.88
2023-02-11T18:35:21.863Z,102722.72
2023-02-11T18:39:26.486Z,102720.56
2023-02-11T18:43:31.675Z,102719.13
2023-02-11T18:47:36.357Z,102725.84
2023-02-11T18:51:39.415Z,102716.56
2023-02-11T18:55:44.571Z,102724.28
2023-02-11T18:59:49.118Z,102729.75
2023-02-11T19:03:53.997Z,102729.75
2023-02-11T19:07:57.926Z,102732.63
2023-02-11T19:12:02.047Z,102731.47
2023-02-11T19:16:16.705Z,102730.19
2023-02-11T19:20:21.410Z,102734.91
2023-02-11T19:24:25.268Z,102741.19
2023-02-11T19:28:28.330Z,102751.09
2023-02-11T19:32:31.962Z,102742.94
2023-02-11T19:36:36.861Z,102751.53
2023-02-11T19:40:39.962Z,102751.38
2023-02-11T19:44:42.997Z,102748.09
2023-02-11T19:48:46.037Z,102753.81
2023-02-11T19:52:50.504Z,102753.53
2023-02-11T19:56:54.173Z,102756.38
2023-02-11T20:01:04.581Z,102757.25
2023-02-11T20:05:08.559Z,102765.28
2023-02-11T20:09:15.354Z,102760.41
2023-02-11T20:13:18.394Z,102767.72
2023-02-11T20:17:21.465Z,102775.91
2023-02-11T20:21:26.752Z,102780.47
2023-02-11T20:25:31.182Z,102771.44
2023-02-11T20:29:34.260Z,102779.63
2023-02-11T20:33:37.852Z,102783.19
2023-02-11T20:37:43.777Z,102789.63
2023-02-11T20:41:48.710Z,102789.53
2023-02-11T20:45:52.050Z,102789.06
2023-02-11T20:49:56.084Z,102796.25
2023-02-11T20:54:00.205Z,102806.72
2023-02-11T20:58:05.699Z,102814.03
2023-02-11T21:02:12.540Z,102801.16
2023-02-11T21:06:15.810Z,102809.16
2023-02-11T21:10:19.299Z,102820.06
2023-02-11T21:14:25.437Z,102815.78
2023-02-11T21:18:28.492Z,102816.03
2023-02-11T21:22:31.728Z,102816.88
2023-02-11T21:26:35.415Z,102814.31
2023-02-11T21:30:40.600Z,102814.31
2023-02-11T21:34:43.646Z,102812.59
2023-02-11T21:38:46.714Z,102825.50
2023-02-11T21:42:49.745Z,102825.50
2023-02-11T21:46:54.194Z,102831.22
2023-02-11T21:50:57.249Z,102832.94
2023-02-11T21:55:00.261Z,102833.66
2023-02-11T21:59:03.872Z,102836.13
2023-02-11T22:03:08.291Z,102836.84
2023-02-11T22:07:12.693Z,102838.84
2023-02-11T22:11:16.074Z,102834.13
2023-02-11T22:15:19.772Z,102828.66
2023-02-11T22:19:25.091Z,102827.75
2023-02-11T22:23:28.675Z,102826.41
2023-02-11T22:27:31.804Z,102836.94
2023-02-11T22:31:36.057Z,102832.50
2023-02-11T22:35:40.582Z,102837.78
2023-02-11T22:39:43.909Z,102834.41
2023-02-11T22:43:47.267Z,102832.41
2023-02-11T22:47:50.294Z,102835.25
2023-02-11T22:51:54.670Z,102836.13
2023-02-11T22:55:58.277Z,102846.75
2023-02-11T23:00:01.316Z,102829.63
2023-02-11T23:04:06.342Z,102829.63
2023-02-11T23:08:12.323Z,102840.84
2023-02-11T23:12:15.350Z,102836.41
2023-02-11T23:16:21.110Z,102840.97
2023-02-11T23:20:24.455Z,102841.84
2023-02-11T23:24:28.895Z,102851.00
2023-02-11T23:28:32.420Z,102855.59
2023-02-11T23:32:38.522Z,102846.66
2023-02-11T23:36:41.561Z,102846.69
2023-02-11T23:40:45.932Z,102853.84
2023-02-11T23:44:48.948Z,102856.47
2023-02-11T23:48:53.121Z,102859.91
2023-02-11T23:52:56.255Z,102864.22
2023-02-11T23:57:00.621Z,102869.63
